Kezdőlap
METAR-TAF:

METAR-TAF

Repülőterek :

Firenze, Olaszország

földrajzi szélesség: 43-48N, földrajzi hosszúság: 011-12E, magasság: 40 m

Jelenlegi meteorológiai megfigyelések

A jelentés 32 perccel ezelõtt készült, 01:50 UTC
Dél-délnyugati szél 5 kt
Hőmérséklet 12°C
Páratartalom 76%
Légköri nyomás 1010 hPa
Látótávolság 10 km, vagy több
Szakadozott felhőzet 4000 lábon

METAR: LIRQ 290150Z 21005KT 9999 BKN040 12/08 Q1010

Idő: 03:22 (02:22 UTC)

Előrejelzés

A jelentés 3 órával és 22 perccel ezelõtt készült, 23:00 UTC
Az előrejelzés 29-én 00 óra UTC és 29-én 24 óra UTC között érvényes
Nyugat-délnyugati szél 7 kt
Látótávolság 10 km, vagy több
Szórványos felhőzet 3000 lábon
29-én 21 óra UTC és 29-én 24 óra UTC között ideiglenes
Látótávolság: 3000 m
Párásság

TAF: LIRQ 282300Z 2900/2924 24007KT 9999 SCT030 TEMPO 2921/2924 3000 BR

Meteorológiai megfigyelések és előrejelzések több, mint 4000 repülőtéren (METAR és TAF jelentéseket).

A térképen piros és sárga pontok jelzik az elérhető meteorológiai állomásokat.

Mozgassa az egeret a pont fölött, hogy megjelenjen az állomás neve.

Azután kattintson az időjárási megfigyelések és előrejelzések megtekintéséhez.

A térkép megváltoztatása: kattintson a fekete keresztel jelölt zöld gombra ráközelítéshez, a vonallal jelölt zöld gombra távolításhoz, vagy a zöld nyilakra a szomszédos térképek eléréséhez.


METAR-TAF: